Portada
METAR-TAF:

METAR-TAF

Aeroports :

Biak, Indonèsia

latitud: 01-11S, longitud: 136-07E, altitud: 11 m

METAR: manca

Hora: 05:10 (22:10 UTC)

Pronòstic

L'informe es va fer fa 5 hores i 10 minuts, a les 17:00 UTC
Pronòstic vàlid del 25 a les 18 UTC al 27 a les 00 UTC
Vent 5 kt del Nord-Oest
Visibilitat 10 km o més
Núvols disperses a una alçada de 1800 ft
Evolucionant progressivament
l' 25 a les 22 UTC al 26 a les 00 UTC
Vent 5 kt del Oest

TAF: WABB 251700Z 2518/2700 32005KT 9999 SCT018 BECMG 2522/2600 27005KT

Observacions i pronòstics meteorològics de més de 4000 aeroports (METAR i TAF).

Les estacions disponibles són els punts grocs i vermells al mapa.

Posi el ratolí al punt desitjat per veure el nom de l'estació.

Feu clic per veure les observacions i els pronòstics meteorològics.

Per canviar el mapa: feu clic els botons verds amb una creu de color negre per apropar; al botó verd amb un guió per allunyar la imatge; o en les fletxes verdes per a mapes adjacents.


METAR-TAF: